Tropical Cyclones
[Index]
Main Index Home Page Stock Weather Photos Extreme Storms Discussion Storm News and Storm Chasing Reports Tropical Cyclones / Hurricanes / Typhoons Weather Data and Links Wild Fires / Bushfires Weather Observation Techniques Weather Picture Catalogue Tornado Pictures and Reports Stock Video Footage and DVDs for sale
Season 1994-1995 Tropical Cyclone CHLOE Track Map
Season 1994-1995 Summaries: [BoM-AU] [JTWC-AU] [JTWC-SIO] [JTWC-SPAC] [JTWC-SH]
<<- Previous TC | JTWC 1994-1995 Season | Next TC ->>

click for intensity scale information  Lat/long Grid: Show Hide

 Date Labels: Show Hide

Joint Typhoon Warning Centre Cyclone Data

Name: CHLOE

29 Mar 1995 18:00 UTC to 09 Apr 1995 06:00 UTC

    date/time    lat    long     hPa   cat  kts
1995-03-29 18    9.0   130.5                  15          
1995-03-30 00    9.1   130.7                  15          
1995-03-30 06    9.2   130.9                  15          
1995-03-30 12    9.4   131.0                  15          
1995-03-30 18    9.6   131.0                  15          
1995-03-31 00    9.7   130.9                  15          
1995-03-31 06    9.8   130.7                  15          
1995-03-31 12    9.9   130.4                  15          
1995-03-31 18   10.0   130.0                  15          
1995-04-01 00   10.1   129.5                  15          
1995-04-01 06   10.2   129.0                  15          
1995-04-01 12   10.3   128.5                  15          
1995-04-01 18   10.4   128.0                  15          
1995-04-02 00   10.4   127.5                  15          
1995-04-02 06   10.4   127.0                  15          
1995-04-02 12   10.3   126.6                  15          
1995-04-02 18   10.2   126.2                  15          
1995-04-03 00   10.1   125.8                  20          
1995-04-03 06   10.0   125.4                  20          
1995-04-03 12    9.9   125.0                  20          
1995-04-03 18    9.8   124.6                  20          
1995-04-04 00    9.8   124.1                  20          
1995-04-04 06    9.9   123.6                  20          
1995-04-04 12   10.0   123.1                  25          
1995-04-04 18   10.1   122.5                  25          
1995-04-05 00   10.3   121.9                  25          
1995-04-05 06   10.6   121.5                  30          
1995-04-05 12   10.9   121.2                  35          
1995-04-05 18   11.4   121.2            1     40          
1995-04-06 00   11.9   121.5            1     50          
1995-04-06 06   12.4   121.9            2     60          
1995-04-06 12   12.9   122.4            2     70          
1995-04-06 18   13.5   122.9            3     85          
1995-04-07 00   14.1   123.3            4    100          
1995-04-07 06   14.6   123.5            4    115          
1995-04-07 12   15.0   123.7            5    125          
1995-04-07 18   15.4   123.9            4    120          
1995-04-08 00   15.9   124.2            4    110          
1995-04-08 06   16.5   124.5            3     90          
1995-04-08 12   17.2   124.7            1     50          
1995-04-08 18   18.0   124.8                  35          
1995-04-09 00   18.8   124.5                  25          
1995-04-09 06   19.4   124.2                  20          
Winds are 1-min average.

Tropical cyclone tracks developed by Michael Bath using data from the Joint Typhoon Warning Centre Best Tracks and Google Maps.


[Australian Severe Weather index] [Copyright Notice] [Email Contacts] [Search This Site] [Privacy Policy]
Document: tropical_cyclone_chloe.htm Updated: 18 September 2016